Terminal Aerodrome Forecast
Issued by NWS

Home | Current Version | Previous Version | Graphics & Text | Print | Product List | Glossary On
Versions: 1 2 3 4 5 6 7 8 9 10 11 12 13 14 15
000
FTUS43 KUNR 201720
TAFGCC
TAF
KGCC 201720Z 2018/2118 23020G30KT P6SM FEW200
     FM210100 19008KT P6SM BKN100
     FM211200 36008KT P6SM SCT035 BKN100=

USA.gov is the U.S. government's official web portal to all federal, state and local government web resources and services.